sensor_id;sensor_type;location;lat;lon;timestamp;temperature;humidity
420;DHT22;42600;54.408;13.016;2023-01-31T00:01:37;3.30;92.70
420;DHT22;42600;54.408;13.016;2023-01-31T00:04:06;3.20;92.70
420;DHT22;42600;54.408;13.016;2023-01-31T00:06:35;3.20;92.70
420;DHT22;42600;54.408;13.016;2023-01-31T00:09:04;3.20;92.70
420;DHT22;42600;54.408;13.016;2023-01-31T00:11:33;3.20;92.70
420;DHT22;42600;54.408;13.016;2023-01-31T00:14:01;3.20;92.70
420;DHT22;42600;54.408;13.016;2023-01-31T00:16:28;3.20;92.70
420;DHT22;42600;54.408;13.016;2023-01-31T00:18:55;3.20;92.70
420;DHT22;42600;54.408;13.016;2023-01-31T00:21:24;3.20;92.70
420;DHT22;42600;54.408;13.016;2023-01-31T00:23:52;3.20;92.70
420;DHT22;42600;54.408;13.016;2023-01-31T00:26:21;3.20;92.70
420;DHT22;42600;54.408;13.016;2023-01-31T00:28:50;3.20;92.70
420;DHT22;42600;54.408;13.016;2023-01-31T00:31:18;3.20;92.70
420;DHT22;42600;54.408;13.016;2023-01-31T00:33:46;3.20;92.70
420;DHT22;42600;54.408;13.016;2023-01-31T00:36:15;3.20;92.70
420;DHT22;42600;54.408;13.016;2023-01-31T00:38:42;3.20;92.70
420;DHT22;42600;54.408;13.016;2023-01-31T00:41:09;3.20;92.70
420;DHT22;42600;54.408;13.016;2023-01-31T00:43:36;3.20;92.70
420;DHT22;42600;54.408;13.016;2023-01-31T00:46:05;3.20;92.70
420;DHT22;42600;54.408;13.016;2023-01-31T00:48:32;3.20;92.70
420;DHT22;42600;54.408;13.016;2023-01-31T00:50:58;3.10;92.70
420;DHT22;42600;54.408;13.016;2023-01-31T00:53:25;3.20;92.70
420;DHT22;42600;54.408;13.016;2023-01-31T00:55:54;3.20;92.70
420;DHT22;42600;54.408;13.016;2023-01-31T00:58:21;3.10;92.70
420;DHT22;42600;54.408;13.016;2023-01-31T01:00:48;3.10;92.70
420;DHT22;42600;54.408;13.016;2023-01-31T01:03:16;3.10;92.70
420;DHT22;42600;54.408;13.016;2023-01-31T01:05:43;3.10;92.70
420;DHT22;42600;54.408;13.016;2023-01-31T01:08:09;3.10;92.70
420;DHT22;42600;54.408;13.016;2023-01-31T01:10:36;3.10;92.70
420;DHT22;42600;54.408;13.016;2023-01-31T01:13:03;3.10;92.70
420;DHT22;42600;54.408;13.016;2023-01-31T01:15:30;3.10;92.70
420;DHT22;42600;54.408;13.016;2023-01-31T01:17:57;3.10;92.70
420;DHT22;42600;54.408;13.016;2023-01-31T01:20:25;3.10;92.70
420;DHT22;42600;54.408;13.016;2023-01-31T01:22:52;3.10;92.70
420;DHT22;42600;54.408;13.016;2023-01-31T01:25:19;3.10;92.70
420;DHT22;42600;54.408;13.016;2023-01-31T01:27:45;3.10;92.70
420;DHT22;42600;54.408;13.016;2023-01-31T01:30:12;3.10;92.70
420;DHT22;42600;54.408;13.016;2023-01-31T01:32:39;3.00;92.70
420;DHT22;42600;54.408;13.016;2023-01-31T01:35:06;3.00;92.70
420;DHT22;42600;54.408;13.016;2023-01-31T01:37:35;3.00;92.70
420;DHT22;42600;54.408;13.016;2023-01-31T01:40:02;2.90;92.70
420;DHT22;42600;54.408;13.016;2023-01-31T01:42:33;2.90;92.70
420;DHT22;42600;54.408;13.016;2023-01-31T01:45:01;2.90;92.70
420;DHT22;42600;54.408;13.016;2023-01-31T01:47:34;2.90;92.70
420;DHT22;42600;54.408;13.016;2023-01-31T01:50:08;2.80;92.70
420;DHT22;42600;54.408;13.016;2023-01-31T01:52:40;2.90;92.70
420;DHT22;42600;54.408;13.016;2023-01-31T01:55:13;2.80;92.70
420;DHT22;42600;54.408;13.016;2023-01-31T01:57:43;2.80;92.70
420;DHT22;42600;54.408;13.016;2023-01-31T02:00:14;2.90;92.70
420;DHT22;42600;54.408;13.016;2023-01-31T02:02:41;2.80;92.70
420;DHT22;42600;54.408;13.016;2023-01-31T02:05:08;2.80;92.70
420;DHT22;42600;54.408;13.016;2023-01-31T02:07:38;2.80;92.70
420;DHT22;42600;54.408;13.016;2023-01-31T02:10:09;2.80;92.70
420;DHT22;42600;54.408;13.016;2023-01-31T02:12:38;2.80;92.70
420;DHT22;42600;54.408;13.016;2023-01-31T02:15:05;2.80;92.70
420;DHT22;42600;54.408;13.016;2023-01-31T02:17:32;2.80;92.70
420;DHT22;42600;54.408;13.016;2023-01-31T02:20:14;2.80;92.70
420;DHT22;42600;54.408;13.016;2023-01-31T02:22:56;2.80;92.70
420;DHT22;42600;54.408;13.016;2023-01-31T02:26:10;2.80;92.70
420;DHT22;42600;54.408;13.016;2023-01-31T02:32:12;2.80;92.70
420;DHT22;42600;54.408;13.016;2023-01-31T02:34:44;2.80;92.70
420;DHT22;42600;54.408;13.016;2023-01-31T02:37:21;2.80;92.70
420;DHT22;42600;54.408;13.016;2023-01-31T02:40:00;2.80;92.70
420;DHT22;42600;54.408;13.016;2023-01-31T02:42:33;2.80;92.70
420;DHT22;42600;54.408;13.016;2023-01-31T02:45:08;2.80;92.70
420;DHT22;42600;54.408;13.016;2023-01-31T02:47:48;2.80;92.70
420;DHT22;42600;54.408;13.016;2023-01-31T02:50:22;2.80;92.70
420;DHT22;42600;54.408;13.016;2023-01-31T02:52:54;2.80;92.70
420;DHT22;42600;54.408;13.016;2023-01-31T02:55:25;2.80;92.70
420;DHT22;42600;54.408;13.016;2023-01-31T02:58:13;2.80;92.70
420;DHT22;42600;54.408;13.016;2023-01-31T03:00:43;2.80;92.70
420;DHT22;42600;54.408;13.016;2023-01-31T03:03:18;2.80;92.70
420;DHT22;42600;54.408;13.016;2023-01-31T03:08:41;2.80;92.70
420;DHT22;42600;54.408;13.016;2023-01-31T03:11:09;2.80;92.70
420;DHT22;42600;54.408;13.016;2023-01-31T03:13:46;2.80;92.70
420;DHT22;42600;54.408;13.016;2023-01-31T03:16:24;2.80;92.70
420;DHT22;42600;54.408;13.016;2023-01-31T03:19:14;2.80;92.70
420;DHT22;42600;54.408;13.016;2023-01-31T03:21:44;2.80;92.70
420;DHT22;42600;54.408;13.016;2023-01-31T03:24:14;2.80;92.70
420;DHT22;42600;54.408;13.016;2023-01-31T03:26:42;2.80;92.70
420;DHT22;42600;54.408;13.016;2023-01-31T03:29:10;2.80;92.70
420;DHT22;42600;54.408;13.016;2023-01-31T03:31:42;2.80;92.70
420;DHT22;42600;54.408;13.016;2023-01-31T03:34:13;2.80;92.70
420;DHT22;42600;54.408;13.016;2023-01-31T03:36:47;2.80;92.70
420;DHT22;42600;54.408;13.016;2023-01-31T03:39:22;2.80;92.70
420;DHT22;42600;54.408;13.016;2023-01-31T03:41:56;2.80;92.70
420;DHT22;42600;54.408;13.016;2023-01-31T03:44:30;2.80;92.70
420;DHT22;42600;54.408;13.016;2023-01-31T03:47:03;2.80;92.70
420;DHT22;42600;54.408;13.016;2023-01-31T03:49:32;2.80;92.70
420;DHT22;42600;54.408;13.016;2023-01-31T03:52:03;2.80;92.70
420;DHT22;42600;54.408;13.016;2023-01-31T03:54:35;2.70;92.70
420;DHT22;42600;54.408;13.016;2023-01-31T03:57:05;2.80;92.70
420;DHT22;42600;54.408;13.016;2023-01-31T03:59:37;2.80;92.70
420;DHT22;42600;54.408;13.016;2023-01-31T04:02:07;2.70;92.70
420;DHT22;42600;54.408;13.016;2023-01-31T04:04:39;2.80;92.70
420;DHT22;42600;54.408;13.016;2023-01-31T04:07:07;2.80;92.70
420;DHT22;42600;54.408;13.016;2023-01-31T04:09:33;2.80;92.70
420;DHT22;42600;54.408;13.016;2023-01-31T04:12:02;2.70;92.70
420;DHT22;42600;54.408;13.016;2023-01-31T04:14:29;2.70;92.70
420;DHT22;42600;54.408;13.016;2023-01-31T04:16:56;2.70;92.70
420;DHT22;42600;54.408;13.016;2023-01-31T04:19:22;2.70;92.70
420;DHT22;42600;54.408;13.016;2023-01-31T04:21:50;2.70;92.70
420;DHT22;42600;54.408;13.016;2023-01-31T04:24:17;2.70;92.70
420;DHT22;42600;54.408;13.016;2023-01-31T04:26:43;2.70;92.70
420;DHT22;42600;54.408;13.016;2023-01-31T04:29:10;2.70;92.70
420;DHT22;42600;54.408;13.016;2023-01-31T04:31:36;2.70;92.70
420;DHT22;42600;54.408;13.016;2023-01-31T04:34:03;2.70;92.70
420;DHT22;42600;54.408;13.016;2023-01-31T04:36:30;2.70;92.70
420;DHT22;42600;54.408;13.016;2023-01-31T04:38:58;2.70;92.70
420;DHT22;42600;54.408;13.016;2023-01-31T04:41:25;2.60;92.70
420;DHT22;42600;54.408;13.016;2023-01-31T04:43:52;2.60;92.70
420;DHT22;42600;54.408;13.016;2023-01-31T04:46:18;2.60;92.70
420;DHT22;42600;54.408;13.016;2023-01-31T04:48:45;2.60;92.70
420;DHT22;42600;54.408;13.016;2023-01-31T04:51:12;2.60;92.70
420;DHT22;42600;54.408;13.016;2023-01-31T04:53:38;2.60;92.70
420;DHT22;42600;54.408;13.016;2023-01-31T04:56:06;2.60;92.70
420;DHT22;42600;54.408;13.016;2023-01-31T04:58:33;2.60;92.70
420;DHT22;42600;54.408;13.016;2023-01-31T05:01:00;2.60;92.70
420;DHT22;42600;54.408;13.016;2023-01-31T05:03:26;2.60;92.70
420;DHT22;42600;54.408;13.016;2023-01-31T05:05:53;2.50;92.70
420;DHT22;42600;54.408;13.016;2023-01-31T05:08:19;2.50;92.70
420;DHT22;42600;54.408;13.016;2023-01-31T05:10:46;2.50;92.70
420;DHT22;42600;54.408;13.016;2023-01-31T05:13:14;2.50;92.70
420;DHT22;42600;54.408;13.016;2023-01-31T05:15:40;2.50;92.70
420;DHT22;42600;54.408;13.016;2023-01-31T05:18:07;2.50;92.70
420;DHT22;42600;54.408;13.016;2023-01-31T05:20:36;2.50;92.70
420;DHT22;42600;54.408;13.016;2023-01-31T05:23:04;2.50;92.70
420;DHT22;42600;54.408;13.016;2023-01-31T05:25:31;2.40;92.70
420;DHT22;42600;54.408;13.016;2023-01-31T05:27:58;2.40;92.70
420;DHT22;42600;54.408;13.016;2023-01-31T05:30:26;2.40;92.70
420;DHT22;42600;54.408;13.016;2023-01-31T05:32:53;2.40;92.70
420;DHT22;42600;54.408;13.016;2023-01-31T05:35:19;2.40;92.70
420;DHT22;42600;54.408;13.016;2023-01-31T05:37:46;2.40;92.70
420;DHT22;42600;54.408;13.016;2023-01-31T05:40:15;2.40;92.70
420;DHT22;42600;54.408;13.016;2023-01-31T05:42:43;2.40;92.70
420;DHT22;42600;54.408;13.016;2023-01-31T05:45:10;2.40;92.70
420;DHT22;42600;54.408;13.016;2023-01-31T05:47:38;2.40;92.70
420;DHT22;42600;54.408;13.016;2023-01-31T05:50:05;2.40;92.70
420;DHT22;42600;54.408;13.016;2023-01-31T05:52:32;2.40;92.70
420;DHT22;42600;54.408;13.016;2023-01-31T05:54:58;2.40;92.70
420;DHT22;42600;54.408;13.016;2023-01-31T05:57:25;2.40;92.70
420;DHT22;42600;54.408;13.016;2023-01-31T05:59:51;2.40;92.70
420;DHT22;42600;54.408;13.016;2023-01-31T06:02:18;2.40;92.70
420;DHT22;42600;54.408;13.016;2023-01-31T06:04:46;2.40;92.70
420;DHT22;42600;54.408;13.016;2023-01-31T06:07:13;2.40;92.70
420;DHT22;42600;54.408;13.016;2023-01-31T06:09:40;2.40;92.70
420;DHT22;42600;54.408;13.016;2023-01-31T06:12:11;2.40;92.70
420;DHT22;42600;54.408;13.016;2023-01-31T06:14:38;2.40;92.70
420;DHT22;42600;54.408;13.016;2023-01-31T06:17:05;2.40;92.70
420;DHT22;42600;54.408;13.016;2023-01-31T06:19:32;2.40;92.70
420;DHT22;42600;54.408;13.016;2023-01-31T06:22:00;2.40;92.70
420;DHT22;42600;54.408;13.016;2023-01-31T06:24:26;2.40;92.70
420;DHT22;42600;54.408;13.016;2023-01-31T06:26:53;2.40;92.70
420;DHT22;42600;54.408;13.016;2023-01-31T06:29:19;2.40;92.70
420;DHT22;42600;54.408;13.016;2023-01-31T06:31:46;2.40;92.70
420;DHT22;42600;54.408;13.016;2023-01-31T06:34:12;2.40;92.70
420;DHT22;42600;54.408;13.016;2023-01-31T06:36:39;2.40;92.70
420;DHT22;42600;54.408;13.016;2023-01-31T06:39:07;2.50;92.70
420;DHT22;42600;54.408;13.016;2023-01-31T06:41:33;2.50;92.70
420;DHT22;42600;54.408;13.016;2023-01-31T06:44:00;2.50;92.70
420;DHT22;42600;54.408;13.016;2023-01-31T06:46:27;2.50;92.70
420;DHT22;42600;54.408;13.016;2023-01-31T06:48:53;2.60;92.70
420;DHT22;42600;54.408;13.016;2023-01-31T06:51:20;2.60;92.70
420;DHT22;42600;54.408;13.016;2023-01-31T06:53:46;2.60;92.70
420;DHT22;42600;54.408;13.016;2023-01-31T06:56:14;2.60;92.70
420;DHT22;42600;54.408;13.016;2023-01-31T06:58:41;2.70;92.70
420;DHT22;42600;54.408;13.016;2023-01-31T07:01:09;2.70;92.70
420;DHT22;42600;54.408;13.016;2023-01-31T07:03:36;2.70;92.70
420;DHT22;42600;54.408;13.016;2023-01-31T07:06:04;2.80;92.70
420;DHT22;42600;54.408;13.016;2023-01-31T07:08:31;2.80;92.70
420;DHT22;42600;54.408;13.016;2023-01-31T07:10:58;2.80;92.70
420;DHT22;42600;54.408;13.016;2023-01-31T07:13:28;2.90;92.70
420;DHT22;42600;54.408;13.016;2023-01-31T07:15:55;2.90;92.70
420;DHT22;42600;54.408;13.016;2023-01-31T07:18:22;2.90;92.70
420;DHT22;42600;54.408;13.016;2023-01-31T07:20:49;3.00;92.70
420;DHT22;42600;54.408;13.016;2023-01-31T07:23:15;3.00;92.70
420;DHT22;42600;54.408;13.016;2023-01-31T07:25:42;3.00;92.70
420;DHT22;42600;54.408;13.016;2023-01-31T07:28:09;3.00;92.70
420;DHT22;42600;54.408;13.016;2023-01-31T07:30:38;3.10;92.70
420;DHT22;42600;54.408;13.016;2023-01-31T07:33:08;3.10;92.70
420;DHT22;42600;54.408;13.016;2023-01-31T07:35:34;3.10;92.70
420;DHT22;42600;54.408;13.016;2023-01-31T07:38:01;3.10;92.70
420;DHT22;42600;54.408;13.016;2023-01-31T07:40:28;3.10;92.70
420;DHT22;42600;54.408;13.016;2023-01-31T07:42:56;3.20;92.70
420;DHT22;42600;54.408;13.016;2023-01-31T07:45:23;3.20;92.70
420;DHT22;42600;54.408;13.016;2023-01-31T07:47:51;3.30;92.70
420;DHT22;42600;54.408;13.016;2023-01-31T07:50:18;3.30;92.70
420;DHT22;42600;54.408;13.016;2023-01-31T07:52:45;3.30;92.70
420;DHT22;42600;54.408;13.016;2023-01-31T07:55:13;3.30;92.70
420;DHT22;42600;54.408;13.016;2023-01-31T07:57:39;3.30;92.70
420;DHT22;42600;54.408;13.016;2023-01-31T08:00:07;3.30;92.70
420;DHT22;42600;54.408;13.016;2023-01-31T08:02:56;3.40;92.70
420;DHT22;42600;54.408;13.016;2023-01-31T08:05:40;3.40;92.70
420;DHT22;42600;54.408;13.016;2023-01-31T08:08:06;3.40;92.70
420;DHT22;42600;54.408;13.016;2023-01-31T08:10:36;3.40;92.70
420;DHT22;42600;54.408;13.016;2023-01-31T08:13:02;3.50;92.70
420;DHT22;42600;54.408;13.016;2023-01-31T08:15:30;3.50;92.70
420;DHT22;42600;54.408;13.016;2023-01-31T08:17:58;3.50;92.70
420;DHT22;42600;54.408;13.016;2023-01-31T08:20:25;3.50;92.70
420;DHT22;42600;54.408;13.016;2023-01-31T08:22:51;3.60;92.70
420;DHT22;42600;54.408;13.016;2023-01-31T08:25:18;3.60;92.70
420;DHT22;42600;54.408;13.016;2023-01-31T08:27:44;3.60;92.70
420;DHT22;42600;54.408;13.016;2023-01-31T08:30:12;3.70;92.70
420;DHT22;42600;54.408;13.016;2023-01-31T08:32:38;3.70;92.70
420;DHT22;42600;54.408;13.016;2023-01-31T08:35:07;3.70;92.70
420;DHT22;42600;54.408;13.016;2023-01-31T08:37:33;3.80;92.70
420;DHT22;42600;54.408;13.016;2023-01-31T08:40:00;3.80;92.70
420;DHT22;42600;54.408;13.016;2023-01-31T08:42:26;3.90;92.70
420;DHT22;42600;54.408;13.016;2023-01-31T08:44:53;3.90;92.70
420;DHT22;42600;54.408;13.016;2023-01-31T08:47:20;4.00;92.70
420;DHT22;42600;54.408;13.016;2023-01-31T08:49:46;4.00;92.70
420;DHT22;42600;54.408;13.016;2023-01-31T08:52:14;4.00;92.70
420;DHT22;42600;54.408;13.016;2023-01-31T08:54:41;4.00;92.70
420;DHT22;42600;54.408;13.016;2023-01-31T08:57:07;4.00;92.70
420;DHT22;42600;54.408;13.016;2023-01-31T08:59:34;4.00;92.70
420;DHT22;42600;54.408;13.016;2023-01-31T09:02:01;4.10;92.70
420;DHT22;42600;54.408;13.016;2023-01-31T09:04:27;4.10;92.70
420;DHT22;42600;54.408;13.016;2023-01-31T09:06:56;4.10;92.70
420;DHT22;42600;54.408;13.016;2023-01-31T09:09:24;4.20;92.70
420;DHT22;42600;54.408;13.016;2023-01-31T09:11:50;4.20;92.70
420;DHT22;42600;54.408;13.016;2023-01-31T09:14:17;4.20;92.70
420;DHT22;42600;54.408;13.016;2023-01-31T09:16:43;4.20;92.70
420;DHT22;42600;54.408;13.016;2023-01-31T09:19:11;4.20;92.70
420;DHT22;42600;54.408;13.016;2023-01-31T09:21:37;4.30;92.70
420;DHT22;42600;54.408;13.016;2023-01-31T09:24:05;4.30;92.70
420;DHT22;42600;54.408;13.016;2023-01-31T09:26:33;4.20;92.70
420;DHT22;42600;54.408;13.016;2023-01-31T09:28:59;4.30;92.70
420;DHT22;42600;54.408;13.016;2023-01-31T09:31:26;4.30;92.70
420;DHT22;42600;54.408;13.016;2023-01-31T09:33:54;4.20;92.70
420;DHT22;42600;54.408;13.016;2023-01-31T09:36:21;4.20;92.70
420;DHT22;42600;54.408;13.016;2023-01-31T09:38:52;4.20;92.70
420;DHT22;42600;54.408;13.016;2023-01-31T09:41:24;4.20;92.70
420;DHT22;42600;54.408;13.016;2023-01-31T09:43:55;4.20;92.70
420;DHT22;42600;54.408;13.016;2023-01-31T09:46:25;4.20;92.70
420;DHT22;42600;54.408;13.016;2023-01-31T09:48:55;4.20;92.70
420;DHT22;42600;54.408;13.016;2023-01-31T09:51:23;4.30;92.70
420;DHT22;42600;54.408;13.016;2023-01-31T09:53:49;4.30;92.70
420;DHT22;42600;54.408;13.016;2023-01-31T09:56:22;4.30;92.70
420;DHT22;42600;54.408;13.016;2023-01-31T09:58:55;4.20;92.70
420;DHT22;42600;54.408;13.016;2023-01-31T10:01:29;4.20;92.70
420;DHT22;42600;54.408;13.016;2023-01-31T10:04:13;4.30;92.70
420;DHT22;42600;54.408;13.016;2023-01-31T10:06:46;4.30;92.70
420;DHT22;42600;54.408;13.016;2023-01-31T10:09:18;4.30;92.70
420;DHT22;42600;54.408;13.016;2023-01-31T10:11:51;4.20;92.70
420;DHT22;42600;54.408;13.016;2023-01-31T10:14:30;4.20;92.70
420;DHT22;42600;54.408;13.016;2023-01-31T10:17:05;4.20;92.70
420;DHT22;42600;54.408;13.016;2023-01-31T10:19:39;4.20;92.70
420;DHT22;42600;54.408;13.016;2023-01-31T10:22:11;4.30;92.70
420;DHT22;42600;54.408;13.016;2023-01-31T10:24:43;4.30;92.70
420;DHT22;42600;54.408;13.016;2023-01-31T10:27:16;4.20;92.70
420;DHT22;42600;54.408;13.016;2023-01-31T10:29:49;4.30;92.70
420;DHT22;42600;54.408;13.016;2023-01-31T10:32:22;4.20;92.70
420;DHT22;42600;54.408;13.016;2023-01-31T10:34:55;4.30;92.70
420;DHT22;42600;54.408;13.016;2023-01-31T10:37:28;4.30;92.70
420;DHT22;42600;54.408;13.016;2023-01-31T10:39:59;4.30;92.70
420;DHT22;42600;54.408;13.016;2023-01-31T10:42:30;4.30;92.70
420;DHT22;42600;54.408;13.016;2023-01-31T10:45:02;4.30;92.70
420;DHT22;42600;54.408;13.016;2023-01-31T10:47:32;4.30;92.70
420;DHT22;42600;54.408;13.016;2023-01-31T10:50:00;4.30;92.70
420;DHT22;42600;54.408;13.016;2023-01-31T10:52:39;4.30;92.70
420;DHT22;42600;54.408;13.016;2023-01-31T10:55:24;4.30;92.70
420;DHT22;42600;54.408;13.016;2023-01-31T10:57:56;4.30;92.70
420;DHT22;42600;54.408;13.016;2023-01-31T11:00:27;4.30;92.70
420;DHT22;42600;54.408;13.016;2023-01-31T11:02:56;4.30;92.70
420;DHT22;42600;54.408;13.016;2023-01-31T11:05:25;4.30;92.70
420;DHT22;42600;54.408;13.016;2023-01-31T11:07:54;4.30;92.70
420;DHT22;42600;54.408;13.016;2023-01-31T11:10:23;4.30;92.70
420;DHT22;42600;54.408;13.016;2023-01-31T11:12:54;4.40;92.70
420;DHT22;42600;54.408;13.016;2023-01-31T11:15:25;4.50;92.70
420;DHT22;42600;54.408;13.016;2023-01-31T11:17:55;4.50;92.70
420;DHT22;42600;54.408;13.016;2023-01-31T11:20:26;4.60;92.70
420;DHT22;42600;54.408;13.016;2023-01-31T11:22:55;4.50;92.70
420;DHT22;42600;54.408;13.016;2023-01-31T11:25:24;4.50;92.70
420;DHT22;42600;54.408;13.016;2023-01-31T11:27:53;4.50;92.70
420;DHT22;42600;54.408;13.016;2023-01-31T11:30:26;4.50;92.70
420;DHT22;42600;54.408;13.016;2023-01-31T11:32:53;4.50;92.70
420;DHT22;42600;54.408;13.016;2023-01-31T11:35:23;4.50;92.70
420;DHT22;42600;54.408;13.016;2023-01-31T11:37:52;4.40;92.70
420;DHT22;42600;54.408;13.016;2023-01-31T11:40:20;4.40;92.70
420;DHT22;42600;54.408;13.016;2023-01-31T11:42:51;4.40;92.70
420;DHT22;42600;54.408;13.016;2023-01-31T11:45:20;4.40;92.70
420;DHT22;42600;54.408;13.016;2023-01-31T11:47:51;4.40;92.70
420;DHT22;42600;54.408;13.016;2023-01-31T11:50:19;4.40;92.70
420;DHT22;42600;54.408;13.016;2023-01-31T11:52:53;4.40;92.70
420;DHT22;42600;54.408;13.016;2023-01-31T11:55:20;4.40;92.70
420;DHT22;42600;54.408;13.016;2023-01-31T11:57:54;4.30;92.70
420;DHT22;42600;54.408;13.016;2023-01-31T12:00:23;4.40;92.70
420;DHT22;42600;54.408;13.016;2023-01-31T12:02:58;4.40;92.70
420;DHT22;42600;54.408;13.016;2023-01-31T12:05:34;4.30;92.70
420;DHT22;42600;54.408;13.016;2023-01-31T12:08:01;4.30;92.70
420;DHT22;42600;54.408;13.016;2023-01-31T12:10:34;4.30;92.70
420;DHT22;42600;54.408;13.016;2023-01-31T12:13:10;4.30;92.70
420;DHT22;42600;54.408;13.016;2023-01-31T12:15:49;4.30;92.70
420;DHT22;42600;54.408;13.016;2023-01-31T12:21:12;4.30;92.70
420;DHT22;42600;54.408;13.016;2023-01-31T12:23:48;4.30;92.70
420;DHT22;42600;54.408;13.016;2023-01-31T12:26:25;4.30;92.70
420;DHT22;42600;54.408;13.016;2023-01-31T12:29:12;4.30;92.70
420;DHT22;42600;54.408;13.016;2023-01-31T12:31:51;4.30;92.70
420;DHT22;42600;54.408;13.016;2023-01-31T12:34:33;4.30;92.70
420;DHT22;42600;54.408;13.016;2023-01-31T12:37:19;4.30;92.70
420;DHT22;42600;54.408;13.016;2023-01-31T12:40:02;4.30;92.70
420;DHT22;42600;54.408;13.016;2023-01-31T12:42:44;4.30;92.70
420;DHT22;42600;54.408;13.016;2023-01-31T12:45:25;4.30;92.70
420;DHT22;42600;54.408;13.016;2023-01-31T12:50:56;4.30;92.70
420;DHT22;42600;54.408;13.016;2023-01-31T12:53:38;4.30;92.70
420;DHT22;42600;54.408;13.016;2023-01-31T12:56:18;4.30;92.70
420;DHT22;42600;54.408;13.016;2023-01-31T12:58:52;4.30;92.70
420;DHT22;42600;54.408;13.016;2023-01-31T13:01:26;4.40;92.70
420;DHT22;42600;54.408;13.016;2023-01-31T13:04:11;4.40;92.70
420;DHT22;42600;54.408;13.016;2023-01-31T13:06:47;4.40;92.70
420;DHT22;42600;54.408;13.016;2023-01-31T13:09:18;4.40;92.70
420;DHT22;42600;54.408;13.016;2023-01-31T13:11:47;4.40;92.70
420;DHT22;42600;54.408;13.016;2023-01-31T13:14:19;4.40;92.70
420;DHT22;42600;54.408;13.016;2023-01-31T13:16:48;4.40;92.70
420;DHT22;42600;54.408;13.016;2023-01-31T13:19:19;4.40;92.70
420;DHT22;42600;54.408;13.016;2023-01-31T13:21:52;4.50;92.70
420;DHT22;42600;54.408;13.016;2023-01-31T13:24:23;4.50;92.70
420;DHT22;42600;54.408;13.016;2023-01-31T13:26:57;4.50;92.70
420;DHT22;42600;54.408;13.016;2023-01-31T13:29:28;4.50;92.70
420;DHT22;42600;54.408;13.016;2023-01-31T13:32:00;4.50;92.70
420;DHT22;42600;54.408;13.016;2023-01-31T13:34:30;4.60;92.70
420;DHT22;42600;54.408;13.016;2023-01-31T13:37:02;4.60;92.70
420;DHT22;42600;54.408;13.016;2023-01-31T13:39:36;4.60;92.70
420;DHT22;42600;54.408;13.016;2023-01-31T13:42:04;4.60;92.70
420;DHT22;42600;54.408;13.016;2023-01-31T13:44:31;4.70;92.70
420;DHT22;42600;54.408;13.016;2023-01-31T13:47:01;4.70;92.70
420;DHT22;42600;54.408;13.016;2023-01-31T13:49:33;4.70;92.70
420;DHT22;42600;54.408;13.016;2023-01-31T13:52:08;4.70;92.70
420;DHT22;42600;54.408;13.016;2023-01-31T13:54:38;4.80;92.70
420;DHT22;42600;54.408;13.016;2023-01-31T13:57:06;4.80;92.70
420;DHT22;42600;54.408;13.016;2023-01-31T13:59:34;4.90;92.70
420;DHT22;42600;54.408;13.016;2023-01-31T14:02:04;4.90;92.70
420;DHT22;42600;54.408;13.016;2023-01-31T14:04:41;5.00;92.70
420;DHT22;42600;54.408;13.016;2023-01-31T14:07:20;5.00;92.70
420;DHT22;42600;54.408;13.016;2023-01-31T14:10:25;5.10;92.70
420;DHT22;42600;54.408;13.016;2023-01-31T14:13:21;5.10;92.70
420;DHT22;42600;54.408;13.016;2023-01-31T14:15:50;5.20;92.70
420;DHT22;42600;54.408;13.016;2023-01-31T14:18:34;5.20;92.70
420;DHT22;42600;54.408;13.016;2023-01-31T14:24:02;5.30;92.70
420;DHT22;42600;54.408;13.016;2023-01-31T14:26:34;5.30;92.70
420;DHT22;42600;54.408;13.016;2023-01-31T14:29:18;5.40;92.70
420;DHT22;42600;54.408;13.016;2023-01-31T14:31:47;5.40;92.70
420;DHT22;42600;54.408;13.016;2023-01-31T14:34:15;5.40;92.70
420;DHT22;42600;54.408;13.016;2023-01-31T14:36:50;5.50;92.70
420;DHT22;42600;54.408;13.016;2023-01-31T14:39:35;5.50;92.70
420;DHT22;42600;54.408;13.016;2023-01-31T14:42:31;5.60;92.70
420;DHT22;42600;54.408;13.016;2023-01-31T14:45:11;5.60;92.70
420;DHT22;42600;54.408;13.016;2023-01-31T14:47:56;5.70;92.70
420;DHT22;42600;54.408;13.016;2023-01-31T14:50:37;5.70;92.70
420;DHT22;42600;54.408;13.016;2023-01-31T14:53:26;5.70;92.70
420;DHT22;42600;54.408;13.016;2023-01-31T14:56:07;5.80;92.70
420;DHT22;42600;54.408;13.016;2023-01-31T14:58:41;5.80;92.70
420;DHT22;42600;54.408;13.016;2023-01-31T15:01:08;5.80;92.70
420;DHT22;42600;54.408;13.016;2023-01-31T15:03:37;5.80;92.70
420;DHT22;42600;54.408;13.016;2023-01-31T15:06:07;5.80;92.70
420;DHT22;42600;54.408;13.016;2023-01-31T15:08:40;5.80;92.70
420;DHT22;42600;54.408;13.016;2023-01-31T15:11:13;5.80;92.70
420;DHT22;42600;54.408;13.016;2023-01-31T15:13:43;5.90;92.70
420;DHT22;42600;54.408;13.016;2023-01-31T15:16:18;5.90;92.70
420;DHT22;42600;54.408;13.016;2023-01-31T15:18:48;5.90;92.70
420;DHT22;42600;54.408;13.016;2023-01-31T15:21:20;5.90;92.70
420;DHT22;42600;54.408;13.016;2023-01-31T15:23:49;5.90;92.70
420;DHT22;42600;54.408;13.016;2023-01-31T15:26:18;6.00;92.70
420;DHT22;42600;54.408;13.016;2023-01-31T15:28:46;6.00;92.70
420;DHT22;42600;54.408;13.016;2023-01-31T15:31:17;6.00;92.70
420;DHT22;42600;54.408;13.016;2023-01-31T15:33:49;6.00;92.70
420;DHT22;42600;54.408;13.016;2023-01-31T15:36:22;6.00;92.70
420;DHT22;42600;54.408;13.016;2023-01-31T15:38:52;6.00;92.70
420;DHT22;42600;54.408;13.016;2023-01-31T15:41:22;6.00;92.70
420;DHT22;42600;54.408;13.016;2023-01-31T15:43:50;6.00;92.70
420;DHT22;42600;54.408;13.016;2023-01-31T15:46:26;6.00;92.70
420;DHT22;42600;54.408;13.016;2023-01-31T15:48:54;6.00;92.70
420;DHT22;42600;54.408;13.016;2023-01-31T15:51:21;6.00;92.70
420;DHT22;42600;54.408;13.016;2023-01-31T15:53:48;6.00;92.70
420;DHT22;42600;54.408;13.016;2023-01-31T15:56:26;6.00;92.70
420;DHT22;42600;54.408;13.016;2023-01-31T15:58:55;6.00;92.70
420;DHT22;42600;54.408;13.016;2023-01-31T16:01:23;6.00;92.70
420;DHT22;42600;54.408;13.016;2023-01-31T16:03:53;6.00;92.70
420;DHT22;42600;54.408;13.016;2023-01-31T16:06:23;6.00;92.70
420;DHT22;42600;54.408;13.016;2023-01-31T16:08:52;6.00;92.70
420;DHT22;42600;54.408;13.016;2023-01-31T16:11:20;6.00;92.70
420;DHT22;42600;54.408;13.016;2023-01-31T16:13:48;6.10;92.70
420;DHT22;42600;54.408;13.016;2023-01-31T16:16:15;6.10;92.70
420;DHT22;42600;54.408;13.016;2023-01-31T16:18:46;6.10;92.70
420;DHT22;42600;54.408;13.016;2023-01-31T16:21:22;6.10;92.70
420;DHT22;42600;54.408;13.016;2023-01-31T16:23:57;6.00;92.70
420;DHT22;42600;54.408;13.016;2023-01-31T16:26:25;6.00;92.70
420;DHT22;42600;54.408;13.016;2023-01-31T16:28:56;5.90;92.70
420;DHT22;42600;54.408;13.016;2023-01-31T16:31:30;5.90;92.70
420;DHT22;42600;54.408;13.016;2023-01-31T16:33:59;5.80;92.70
420;DHT22;42600;54.408;13.016;2023-01-31T16:36:30;5.80;92.70
420;DHT22;42600;54.408;13.016;2023-01-31T16:38:58;5.70;92.70